WetterOnline ( https://www.wetteronline.de )

Wetter aktuell PLZ Bereich 02953

Aktuelles Wetter: Görlitz (240m)

6-stündlich | Neueste Meldungen
Ortszeit Temperatur Wetter
Mi, 16.10. 14:00 14.4° C bewölkt
Mi, 16.10. 8:00 14.1° C bedeckt
Mi, 16.10. 2:00 11.4° C wolkenlos
Di, 15.10. 20:00 15.0° C fast wolkenlos
Di, 15.10. 14:00 19.2° C wolkenlos
Di, 15.10. 8:00 15.2° C wolkenlos
Di, 15.10. 2:00 15.4° C bewölkt
Mo, 14.10. 20:00 16.6° C wolkenlos
Ortszeit Temperatur Wetter
Mi, 16.10. 18:00 11.7° C wolkenlos
Mi, 16.10. 17:50 11.7° C wolkenlos
Mi, 16.10. 17:40 11.8° C wolkenlos
Mi, 16.10. 17:30 12.7° C leicht bewölkt
Mi, 16.10. 17:20 12.7° C leicht bewölkt
Mi, 16.10. 17:10 12.8° C leicht bewölkt
Mi, 16.10. 17:00 12.8° C bewölkt
Mi, 16.10. 16:30 13.3° C bedeckt
Mi, 16.10. 16:00 13.2° C bewölkt
Mi, 16.10. 15:30 15.0° C bewölkt
Mi, 16.10. 15:00 14.7° C bedeckt
Ortszeit Relative Feuchte Sichtweite
Mi, 16.10. 14:00 67% >70 km
Mi, 16.10. 8:00 83% 21 km
Mi, 16.10. 2:00 90% 11 km
Di, 15.10. 20:00 80% 18 km
Di, 15.10. 14:00 63% 29 km
Di, 15.10. 8:00 79% 25 km
Di, 15.10. 2:00 78% 35 km
Mo, 14.10. 20:00 77% 35 km
Ortszeit Relative Feuchte Sichtweite
Mi, 16.10. 18:00 76% >70 km
Mi, 16.10. 17:50 76% -
Mi, 16.10. 17:40 75% -
Mi, 16.10. 17:30 72% >70 km
Mi, 16.10. 17:20 72% -
Mi, 16.10. 17:10 73% -
Mi, 16.10. 17:00 72% >70 km
Mi, 16.10. 16:30 63% >70 km
Mi, 16.10. 16:00 61% >70 km
Mi, 16.10. 15:30 62% 65 km
Mi, 16.10. 15:00 62% >70 km
Ortszeit Niederschlagsmenge Niederschlagsart
Mi, 16.10. 14:00 0.7 l/m2 in 6 Std. Regen
Mi, 16.10. 8:00 0.0 l/m2 in 12 Std. -
Mi, 16.10. 2:00 0.0 l/m2 in 6 Std. -
Di, 15.10. 20:00 0.0 l/m2 in 12 Std. -
Di, 15.10. 14:00 0.0 l/m2 in 6 Std. -
Di, 15.10. 8:00 0.0 l/m2 in 12 Std. -
Di, 15.10. 2:00 0.0 l/m2 in 6 Std. -
Mo, 14.10. 20:00 0.0 l/m2 in 12 Std. -
Ortszeit Niederschlagsmenge Niederschlagsart
Mi, 16.10. 18:00 0.1 l/m2 in 1 Std. -
Mi, 16.10. 17:50 keine Meldung -
Mi, 16.10. 17:40 keine Meldung -
Mi, 16.10. 17:30 0.1 l/m2 in 1 Std. -
Mi, 16.10. 17:20 keine Meldung -
Mi, 16.10. 17:10 keine Meldung -
Mi, 16.10. 17:00 0.1 l/m2 in 1 Std. Regen
Mi, 16.10. 16:30 0.1 l/m2 in 1 Std. Schneeregen
Mi, 16.10. 16:00 0.0 l/m2 in 1 Std. -
Mi, 16.10. 15:30 0.0 l/m2 in 1 Std. -
Mi, 16.10. 15:00 0.0 l/m2 in 1 Std. -
Ortszeit Stärke Spitze Richtung
km/h Bft. km/h Grad Sektor
Mi, 16.10. 14:00 25 4 47 230° SW
Mi, 16.10. 8:00 20 4 39 230° SW
Mi, 16.10. 2:00 11 2 25 230° SW
Di, 15.10. 20:00 9 2 37 190° S
Di, 15.10. 14:00 26 4 52 200° S
Di, 15.10. 8:00 25 4 40 190° S
Di, 15.10. 2:00 4 1 40 240° SW
Mo, 14.10. 20:00 11 2 24 200° S
Ortszeit Stärke Spitze Richtung
km/h Bft. km/h Grad Sektor
Mi, 16.10. 18:00 13 3 24 200° S
Mi, 16.10. 17:50 13 3 - 200° S
Mi, 16.10. 17:40 13 3 - 220° SW
Mi, 16.10. 17:30 17 3 24 220° SW
Mi, 16.10. 17:20 17 3 - 220° SW
Mi, 16.10. 17:10 17 3 - 230° SW
Mi, 16.10. 17:00 22 4 44 240° SW
Mi, 16.10. 16:30 17 3 44 250° W
Mi, 16.10. 16:00 33 5 54 270° W
Mi, 16.10. 15:30 18 3 29 230° SW
Mi, 16.10. 15:00 18 3 40 240° SW
Ortszeit Untergrenze Bedeckung Gattung
total tief tief mittel hoch
Mi, 16.10. 14:00 1080 m 8/8 7/8 - - -
Mi, 16.10. 8:00 570 m 8/8 8/8 - - -
Mi, 16.10. 2:00 - 0/8 0/8 - - -
Di, 15.10. 20:00 9000 m 1/8 0/8 - - -
Di, 15.10. 14:00 - 0/8 0/8 - - -
Di, 15.10. 8:00 - 0/8 0/8 - - -
Di, 15.10. 2:00 6000 m 7/8 7/8 - - -
Mo, 14.10. 20:00 - 0/8 0/8 - - -
Ortszeit Bedeckungsgrad in Achtel und Wolkenuntergrenze
Mi, 16.10. 18:00 keine Wolken
Mi, 16.10. 17:50 keine Wolken
Mi, 16.10. 17:40 keine Wolken
Mi, 16.10. 17:30 1(1500m)
Mi, 16.10. 17:20 1(1500m) 2(1800m)
Mi, 16.10. 17:10 1(1380m) 3(1500m) 4(2400m)
Mi, 16.10. 17:00 2(1350m) 6(1800m) 7(2100m)
Mi, 16.10. 16:30 1(1410m) 7(2100m) 8(2700m)
Mi, 16.10. 16:00 5(1260m) 5(1500m) 7(2100m)
Mi, 16.10. 15:30 1(1050m) 4(1260m) 7(2100m)
Mi, 16.10. 15:00 4(1110m) 5(1500m) 8(2100m)
Ortszeit Luftdruck NN (hPa) Tendenz (hPa in 3 Std.)
Mi, 16.10. 14:00 1012 + 1,4
Mi, 16.10. 8:00 1008 + 1,2
Mi, 16.10. 2:00 1006 0,0
Di, 15.10. 20:00 1006 - 0,1
Di, 15.10. 14:00 1007 - 1,9
Di, 15.10. 8:00 1010 - 0,7
Di, 15.10. 2:00 1012 - 1,5
Mo, 14.10. 20:00 1015 - 0,5
Ortszeit Luftdruck NN (hPa) Tendenz (hPa in 3 Std.)
Mi, 16.10. 18:00 1014 + 0,7
Mi, 16.10. 17:50 1014 keine Meldung
Mi, 16.10. 17:40 1013 keine Meldung
Mi, 16.10. 17:30 1013 + 0,6
Mi, 16.10. 17:20 1013 keine Meldung
Mi, 16.10. 17:10 1013 keine Meldung
Mi, 16.10. 17:00 1013 + 0,7
Mi, 16.10. 16:30 1013 + 0,5
Mi, 16.10. 16:00 1013 + 0,7
Mi, 16.10. 15:30 1013 + 0,2
Mi, 16.10. 15:00 1013 + 0,3
Ortszeit Schneehöhe (cm)
Mi, 16.10. 14:00 -
Mi, 16.10. 8:00 0
Mi, 16.10. 2:00 0
Di, 15.10. 20:00 0
Di, 15.10. 14:00 0
Di, 15.10. 8:00 0
Di, 15.10. 2:00 0
Mo, 14.10. 20:00 0
Ortszeit Schneehöhe (cm)
Mi, 16.10. 18:00 0
Mi, 16.10. 17:50 0
Mi, 16.10. 17:40 0
Mi, 16.10. 17:30 0
Mi, 16.10. 17:20 -
Mi, 16.10. 17:10 -
Mi, 16.10. 17:00 0
Mi, 16.10. 16:30 0
Mi, 16.10. 16:00 0
Mi, 16.10. 15:30 -
Mi, 16.10. 15:00 0
Link zu dieser Seite / Seite empfehlen

Das Wetter in ...